createdAt,value
2023-02-26T00:00:15.185Z,0.70
2023-02-26T00:02:42.958Z,0.60
2023-02-26T00:05:10.283Z,0.50
2023-02-26T00:07:37.629Z,0.50
2023-02-26T00:10:07.463Z,0.40
2023-02-26T00:12:35.051Z,0.40
2023-02-26T00:15:02.366Z,0.40
2023-02-26T00:17:51.287Z,0.30
2023-02-26T00:20:18.610Z,0.30
2023-02-26T00:22:45.765Z,0.50
2023-02-26T00:25:12.676Z,0.50
2023-02-26T00:27:39.807Z,0.50
2023-02-26T00:30:08.818Z,0.40
2023-02-26T00:32:36.616Z,0.40
2023-02-26T00:35:03.739Z,0.40
2023-02-26T00:37:39.642Z,0.30
2023-02-26T00:40:25.359Z,0.30
2023-02-26T00:42:52.307Z,0.10
2023-02-26T00:45:19.494Z,0.10
2023-02-26T00:47:59.230Z,0.10
2023-02-26T00:50:27.441Z,0.00
2023-02-26T00:53:16.135Z,0.00
2023-02-26T00:55:42.858Z,-0.10
2023-02-26T00:58:09.727Z,0.00
2023-02-26T01:00:36.401Z,-0.10
2023-02-26T01:03:04.001Z,-0.10
2023-02-26T01:05:31.367Z,-0.10
2023-02-26T01:08:15.449Z,-0.10
2023-02-26T01:10:42.578Z,-0.10
2023-02-26T01:13:09.914Z,-0.20
2023-02-26T01:15:37.047Z,-0.10
2023-02-26T01:18:18.430Z,-0.10
2023-02-26T01:20:54.554Z,-0.10
2023-02-26T01:23:33.943Z,0.00
2023-02-26T01:26:08.888Z,-0.10
2023-02-26T01:28:35.892Z,-0.20
2023-02-26T01:31:07.056Z,-0.20
2023-02-26T01:33:55.258Z,-0.30
2023-02-26T01:36:27.681Z,-0.30
2023-02-26T01:39:39.559Z,-0.30
2023-02-26T01:42:27.243Z,-0.30
2023-02-26T01:45:02.281Z,-0.40
2023-02-26T01:47:34.102Z,-0.40
2023-02-26T01:50:15.376Z,-0.40
2023-02-26T01:52:48.359Z,-0.40
2023-02-26T01:55:22.017Z,-0.50
2023-02-26T01:57:51.129Z,-0.50
2023-02-26T02:00:19.031Z,-0.50
2023-02-26T02:02:45.962Z,-0.60
2023-02-26T02:05:21.218Z,-0.60
2023-02-26T02:07:48.195Z,-0.60
2023-02-26T02:10:16.869Z,-0.60
2023-02-26T02:13:10.884Z,-0.70
2023-02-26T02:15:48.239Z,-0.70
2023-02-26T02:18:42.724Z,-0.70
2023-02-26T02:21:21.500Z,-0.70
2023-02-26T02:23:52.346Z,-0.80
2023-02-26T02:27:06.531Z,-0.80
2023-02-26T02:30:06.334Z,-0.70
2023-02-26T02:32:39.247Z,-0.70
2023-02-26T02:35:13.353Z,-0.80
2023-02-26T02:37:54.745Z,-0.80
2023-02-26T02:40:25.621Z,-0.80
2023-02-26T02:42:55.304Z,-0.80
2023-02-26T02:45:37.659Z,-0.90
2023-02-26T02:48:21.173Z,-0.90
2023-02-26T02:50:53.513Z,-0.90
2023-02-26T02:53:33.228Z,-1.00
2023-02-26T02:56:05.920Z,-1.10
2023-02-26T02:58:39.585Z,-1.00
2023-02-26T03:01:09.312Z,-1.00
2023-02-26T03:03:54.555Z,-1.00
2023-02-26T03:06:21.860Z,-1.00
2023-02-26T03:08:50.735Z,-1.00
2023-02-26T03:11:17.430Z,-1.00
2023-02-26T03:13:45.687Z,-1.00
2023-02-26T03:16:12.366Z,-1.10
2023-02-26T03:19:05.818Z,-1.00
2023-02-26T03:21:58.668Z,-1.00
2023-02-26T03:24:37.124Z,-1.00
2023-02-26T03:27:14.375Z,-1.00
2023-02-26T03:29:50.068Z,-1.00
2023-02-26T03:32:24.655Z,-1.00
2023-02-26T03:35:00.342Z,-1.00
2023-02-26T03:37:40.589Z,-1.00
2023-02-26T03:40:32.805Z,-1.10
2023-02-26T03:43:40.479Z,-1.00
2023-02-26T03:46:11.934Z,-1.10
2023-02-26T03:48:38.810Z,-1.10
2023-02-26T03:51:12.376Z,-1.20
2023-02-26T03:53:56.845Z,-1.10
2023-02-26T03:56:33.723Z,-1.10
2023-02-26T03:59:00.795Z,-1.10
2023-02-26T04:01:34.254Z,-1.10
2023-02-26T04:04:16.215Z,-1.00
2023-02-26T04:06:44.415Z,-1.10
2023-02-26T04:09:12.085Z,-1.10
2023-02-26T04:11:39.648Z,-1.20
2023-02-26T04:14:06.400Z,-1.20
2023-02-26T04:16:33.162Z,-1.20
2023-02-26T04:18:59.912Z,-1.20
2023-02-26T04:21:26.786Z,-1.20
2023-02-26T04:23:53.519Z,-1.10
2023-02-26T04:26:20.194Z,-1.10
2023-02-26T04:28:46.895Z,-1.10
2023-02-26T04:31:13.813Z,-1.10
2023-02-26T04:33:40.556Z,-1.20
2023-02-26T04:36:07.642Z,-1.20
2023-02-26T04:38:34.591Z,-1.20
2023-02-26T04:41:01.506Z,-1.20
2023-02-26T04:43:28.234Z,-1.20
2023-02-26T04:45:55.219Z,-1.20
2023-02-26T04:48:21.969Z,-1.20
2023-02-26T04:50:48.765Z,-1.30
2023-02-26T04:53:15.526Z,-1.20
2023-02-26T04:55:42.431Z,-1.20
2023-02-26T04:58:09.492Z,-1.40
2023-02-26T05:00:36.379Z,-1.40
2023-02-26T05:03:03.106Z,-1.50
2023-02-26T05:05:29.916Z,-1.60
2023-02-26T05:07:56.873Z,-1.60
2023-02-26T05:10:24.632Z,-1.60
2023-02-26T05:12:51.737Z,-1.60
2023-02-26T05:15:18.773Z,-1.60
2023-02-26T05:17:45.664Z,-1.60
2023-02-26T05:20:12.697Z,-1.60
2023-02-26T05:22:40.137Z,-1.60
2023-02-26T05:25:07.784Z,-1.70
2023-02-26T05:27:34.876Z,-1.70
2023-02-26T05:30:01.894Z,-1.70
2023-02-26T05:32:29.332Z,-1.70
2023-02-26T05:34:56.053Z,-1.70
2023-02-26T05:37:22.825Z,-1.70
2023-02-26T05:39:49.534Z,-1.70
2023-02-26T05:42:16.455Z,-1.70
2023-02-26T05:44:43.341Z,-1.70
2023-02-26T05:47:10.088Z,-1.70
2023-02-26T05:49:37.109Z,-1.80
2023-02-26T05:52:04.886Z,-1.80
2023-02-26T05:54:31.622Z,-1.90
2023-02-26T05:56:58.380Z,-1.90
2023-02-26T05:59:25.259Z,-1.90
2023-02-26T06:01:51.980Z,-2.00
2023-02-26T06:04:18.773Z,-2.00
2023-02-26T06:06:45.589Z,-2.00
2023-02-26T06:09:12.337Z,-1.90
2023-02-26T06:11:40.473Z,-1.90
2023-02-26T06:14:07.475Z,-1.90
2023-02-26T06:16:35.893Z,-2.00
2023-02-26T06:19:03.046Z,-1.90
2023-02-26T06:21:30.191Z,-2.00
2023-02-26T06:23:57.096Z,-2.00
2023-02-26T06:26:24.190Z,-2.00
2023-02-26T06:28:51.069Z,-2.10
2023-02-26T06:31:17.909Z,-2.10
2023-02-26T06:33:44.786Z,-2.10
2023-02-26T06:36:11.880Z,-2.10
2023-02-26T06:38:38.574Z,-2.10
2023-02-26T06:41:05.360Z,-2.10
2023-02-26T06:43:32.096Z,-2.10
2023-02-26T06:46:00.008Z,-2.10
2023-02-26T06:48:27.096Z,-2.10
2023-02-26T06:50:53.933Z,-2.10
2023-02-26T06:53:20.845Z,-2.00
2023-02-26T06:55:51.519Z,-2.00
2023-02-26T06:58:19.240Z,-2.10
2023-02-26T07:00:45.981Z,-2.00
2023-02-26T07:03:14.938Z,-1.90
2023-02-26T07:05:41.764Z,-1.90
2023-02-26T07:08:08.633Z,-1.90
2023-02-26T07:10:36.854Z,-1.90
2023-02-26T07:13:03.679Z,-1.90
2023-02-26T07:15:30.843Z,-1.90
2023-02-26T07:18:00.062Z,-1.90
2023-02-26T07:20:27.846Z,-1.90
2023-02-26T07:22:54.577Z,-1.90
2023-02-26T07:25:21.311Z,-1.80
2023-02-26T07:27:48.193Z,-1.70
2023-02-26T07:30:15.364Z,-1.50
2023-02-26T07:32:42.201Z,-1.30
2023-02-26T07:35:09.597Z,-1.20
2023-02-26T07:37:36.527Z,-0.90
2023-02-26T07:40:07.182Z,-0.80
2023-02-26T07:42:33.942Z,-1.00
2023-02-26T07:45:00.751Z,-1.10
2023-02-26T07:47:27.661Z,-1.10
2023-02-26T07:49:54.461Z,-0.90
2023-02-26T07:52:21.459Z,-0.90
2023-02-26T07:54:48.251Z,-1.10
2023-02-26T07:57:14.952Z,-1.10
2023-02-26T07:59:41.732Z,-1.10
2023-02-26T08:02:08.472Z,-1.00
2023-02-26T08:04:35.255Z,-0.90
2023-02-26T08:07:02.365Z,-0.80
2023-02-26T08:09:29.270Z,-0.70
2023-02-26T08:11:56.213Z,-0.70
2023-02-26T08:14:23.368Z,-0.70
2023-02-26T08:16:50.137Z,-0.70
2023-02-26T08:19:16.823Z,-0.90
2023-02-26T08:21:43.527Z,-0.90
2023-02-26T08:24:12.377Z,-0.60
2023-02-26T08:26:39.373Z,-0.40
2023-02-26T08:29:06.147Z,-0.40
2023-02-26T08:31:34.530Z,-0.40
2023-02-26T08:34:02.047Z,-0.40
2023-02-26T08:36:28.844Z,-0.40
2023-02-26T08:38:55.664Z,-0.40
2023-02-26T08:41:23.965Z,-0.50
2023-02-26T08:43:51.432Z,-0.60
2023-02-26T08:46:18.108Z,-0.80
2023-02-26T08:48:44.830Z,-0.80
2023-02-26T08:51:11.478Z,-0.90
2023-02-26T08:53:39.918Z,-0.80
2023-02-26T08:56:06.866Z,-0.80
2023-02-26T08:58:33.563Z,-0.90
2023-02-26T09:01:00.243Z,-0.90
2023-02-26T09:03:27.013Z,-0.80
2023-02-26T09:05:53.753Z,-0.90
2023-02-26T09:08:21.315Z,-1.00
2023-02-26T09:10:48.189Z,-1.20
2023-02-26T09:13:14.966Z,-1.20
2023-02-26T09:15:42.285Z,-1.10
2023-02-26T09:18:15.343Z,-1.00
2023-02-26T09:20:43.995Z,-1.00
2023-02-26T09:23:11.588Z,-0.80
2023-02-26T09:25:38.821Z,-0.60
2023-02-26T09:28:05.876Z,-0.60
2023-02-26T09:30:33.109Z,-0.60
2023-02-26T09:32:59.869Z,-0.70
2023-02-26T09:35:26.618Z,-0.80
2023-02-26T09:37:53.353Z,-0.70
2023-02-26T09:40:47.757Z,-0.60
2023-02-26T09:43:39.311Z,-0.60
2023-02-26T09:46:25.447Z,-0.50
2023-02-26T09:49:03.027Z,-0.50
2023-02-26T09:51:30.947Z,-0.60
2023-02-26T09:54:00.986Z,-0.70
2023-02-26T09:56:32.687Z,-0.80
2023-02-26T09:58:59.496Z,-0.80
2023-02-26T10:01:48.749Z,-0.90
2023-02-26T10:04:43.376Z,-0.90
2023-02-26T10:07:42.199Z,-0.90
2023-02-26T10:10:30.697Z,-0.80
2023-02-26T10:13:00.575Z,-0.80
2023-02-26T10:15:37.664Z,-0.70
2023-02-26T10:18:17.641Z,-0.70
2023-02-26T10:20:55.920Z,-0.60
2023-02-26T10:23:48.785Z,-0.40
2023-02-26T10:26:18.593Z,-0.20
2023-02-26T10:28:59.469Z,-0.10
2023-02-26T10:31:33.017Z,-0.10
2023-02-26T10:34:31.331Z,-0.10
2023-02-26T10:37:20.784Z,0.00
2023-02-26T10:39:53.896Z,0.10
2023-02-26T10:42:28.423Z,0.10
2023-02-26T10:45:11.089Z,0.10
2023-02-26T10:47:46.489Z,0.30
2023-02-26T10:50:16.153Z,0.40
2023-02-26T10:52:45.595Z,0.40
2023-02-26T10:55:40.309Z,0.60
2023-02-26T10:58:16.933Z,0.50
2023-02-26T11:00:48.012Z,0.50
2023-02-26T11:03:34.279Z,0.60
2023-02-26T11:06:03.743Z,0.80
2023-02-26T11:08:39.609Z,0.90
2023-02-26T11:11:07.022Z,0.70
2023-02-26T11:13:36.633Z,0.80
2023-02-26T11:16:13.994Z,1.00
2023-02-26T11:18:46.455Z,0.60
2023-02-26T11:21:27.266Z,0.30
2023-02-26T11:23:59.938Z,0.30
2023-02-26T11:26:30.863Z,0.50
2023-02-26T11:28:58.769Z,0.50
2023-02-26T11:31:27.084Z,0.50
2023-02-26T11:34:06.010Z,0.40
2023-02-26T11:36:34.354Z,0.20
2023-02-26T11:39:15.797Z,0.20
2023-02-26T11:41:46.962Z,0.40
2023-02-26T11:44:24.052Z,0.50
2023-02-26T11:46:56.961Z,0.90
2023-02-26T11:49:27.628Z,1.10
2023-02-26T11:52:33.318Z,1.20
2023-02-26T11:55:06.292Z,1.50
2023-02-26T11:57:33.912Z,1.50
2023-02-26T12:00:16.840Z,1.60
2023-02-26T12:02:43.865Z,1.40
2023-02-26T12:05:16.092Z,1.30
2023-02-26T12:07:42.853Z,1.00
2023-02-26T12:10:24.525Z,1.00
2023-02-26T12:13:14.937Z,1.10
2023-02-26T12:16:26.821Z,1.00
2023-02-26T12:19:07.638Z,1.10
2023-02-26T12:21:58.204Z,1.10
2023-02-26T12:24:52.614Z,1.40
2023-02-26T12:27:22.306Z,1.30
2023-02-26T12:30:13.590Z,1.30
2023-02-26T12:32:56.275Z,1.60
2023-02-26T12:35:23.024Z,1.90
2023-02-26T12:38:04.373Z,1.60
2023-02-26T12:40:49.744Z,1.60
2023-02-26T12:43:27.402Z,1.40
2023-02-26T12:46:21.959Z,1.10
2023-02-26T12:49:00.346Z,0.70
2023-02-26T12:51:42.005Z,0.60
2023-02-26T12:54:27.658Z,0.60
2023-02-26T12:56:54.329Z,0.70
2023-02-26T12:59:41.967Z,0.80
2023-02-26T13:02:45.924Z,0.90
2023-02-26T13:05:36.812Z,1.10
2023-02-26T13:08:06.446Z,1.20
2023-02-26T13:11:00.980Z,1.40
2023-02-26T13:13:30.391Z,1.60
2023-02-26T13:16:00.685Z,1.70
2023-02-26T13:18:36.730Z,1.80
2023-02-26T13:21:07.474Z,1.60
2023-02-26T13:23:51.272Z,1.50
2023-02-26T13:26:19.333Z,1.40
2023-02-26T13:28:59.483Z,1.40
2023-02-26T13:31:33.223Z,1.40
2023-02-26T13:34:06.464Z,1.40
2023-02-26T13:36:35.375Z,1.50
2023-02-26T13:39:28.604Z,1.60
2023-02-26T13:42:38.254Z,1.60
2023-02-26T13:45:35.285Z,1.60
2023-02-26T13:48:11.284Z,1.60
2023-02-26T13:50:55.845Z,1.60
2023-02-26T13:53:36.141Z,1.80
2023-02-26T13:56:26.324Z,2.00
2023-02-26T13:59:02.949Z,2.00
2023-02-26T14:01:48.647Z,2.00
2023-02-26T14:04:22.370Z,2.00
2023-02-26T14:07:13.779Z,2.00
2023-02-26T14:09:46.781Z,2.10
2023-02-26T14:12:13.468Z,1.80
2023-02-26T14:14:41.570Z,1.80
2023-02-26T14:17:08.239Z,1.80
2023-02-26T14:19:53.369Z,1.80
2023-02-26T14:22:25.928Z,1.90
2023-02-26T14:24:54.229Z,1.90
2023-02-26T14:27:23.881Z,1.90
2023-02-26T14:29:56.417Z,1.70
2023-02-26T14:32:32.167Z,1.70
2023-02-26T14:35:10.894Z,1.80
2023-02-26T14:37:39.891Z,1.80
2023-02-26T14:40:21.573Z,1.80
2023-02-26T14:42:56.266Z,1.70
2023-02-26T14:45:27.323Z,1.70
2023-02-26T14:47:56.315Z,1.50
2023-02-26T14:50:23.922Z,1.40
2023-02-26T14:52:50.667Z,1.30
2023-02-26T14:55:29.759Z,1.30
2023-02-26T14:58:16.243Z,1.40
2023-02-26T15:01:09.401Z,1.50
2023-02-26T15:04:09.732Z,1.50
2023-02-26T15:07:01.349Z,1.60
2023-02-26T15:09:47.256Z,1.60
2023-02-26T15:12:52.653Z,1.50
2023-02-26T15:16:09.500Z,1.40
2023-02-26T15:19:01.692Z,1.20
2023-02-26T15:21:53.079Z,1.20
2023-02-26T15:24:20.183Z,1.20
2023-02-26T15:27:09.530Z,1.20
2023-02-26T15:29:38.846Z,1.30
2023-02-26T15:32:27.606Z,1.40
2023-02-26T15:35:21.950Z,1.20
2023-02-26T15:37:54.757Z,0.70
2023-02-26T15:40:21.775Z,0.50
2023-02-26T15:42:56.622Z,0.30
2023-02-26T15:45:40.285Z,0.30
2023-02-26T15:48:20.105Z,0.20
2023-02-26T15:50:52.709Z,0.20
2023-02-26T15:53:29.793Z,0.20
2023-02-26T15:55:59.166Z,0.30
2023-02-26T15:58:37.615Z,0.30
2023-02-26T16:01:05.642Z,0.30
2023-02-26T16:03:36.321Z,0.30
2023-02-26T16:06:04.102Z,0.30
2023-02-26T16:08:31.034Z,0.20
2023-02-26T16:10:59.655Z,0.20
2023-02-26T16:13:37.734Z,0.20
2023-02-26T16:16:17.807Z,0.20
2023-02-26T16:18:45.413Z,0.20
2023-02-26T16:21:38.460Z,0.20
2023-02-26T16:24:08.097Z,0.20
2023-02-26T16:26:41.757Z,0.20
2023-02-26T16:29:19.343Z,0.30
2023-02-26T16:31:51.540Z,0.30
2023-02-26T16:34:41.429Z,0.40
2023-02-26T16:37:22.585Z,0.40
2023-02-26T16:39:57.211Z,0.50
2023-02-26T16:42:55.416Z,0.60
2023-02-26T16:45:37.151Z,0.50
2023-02-26T16:48:18.398Z,0.40
2023-02-26T16:50:54.436Z,0.30
2023-02-26T16:53:21.548Z,0.30
2023-02-26T16:55:56.506Z,0.20
2023-02-26T16:58:24.425Z,0.10
2023-02-26T17:00:59.059Z,0.00
2023-02-26T17:03:27.118Z,0.00
2023-02-26T17:06:01.798Z,-0.10
2023-02-26T17:08:36.698Z,-0.20
2023-02-26T17:11:08.533Z,-0.20
2023-02-26T17:13:36.659Z,-0.20
2023-02-26T17:16:07.632Z,-0.20
2023-02-26T17:18:34.681Z,-0.30
2023-02-26T17:21:05.829Z,-0.30
2023-02-26T17:23:37.092Z,-0.30
2023-02-26T17:26:05.023Z,-0.30
2023-02-26T17:28:40.475Z,-0.30
2023-02-26T17:31:07.638Z,-0.30
2023-02-26T17:33:35.617Z,-0.30
2023-02-26T17:36:04.320Z,-0.30
2023-02-26T17:38:33.498Z,-0.40
2023-02-26T17:41:00.881Z,-0.40
2023-02-26T17:43:28.760Z,-0.40
2023-02-26T17:45:55.871Z,-0.50
2023-02-26T17:48:23.245Z,-0.50
2023-02-26T17:50:57.939Z,-0.50
2023-02-26T17:53:29.521Z,-0.50
2023-02-26T17:55:56.661Z,-0.50
2023-02-26T17:58:28.793Z,-0.50
2023-02-26T18:00:56.443Z,-0.50
2023-02-26T18:03:23.297Z,-0.50
2023-02-26T18:05:51.972Z,-0.50
2023-02-26T18:08:26.812Z,-0.50
2023-02-26T18:10:54.308Z,-0.50
2023-02-26T18:13:21.714Z,-0.50
2023-02-26T18:15:49.845Z,-0.50
2023-02-26T18:18:17.589Z,-0.50
2023-02-26T18:20:46.077Z,-0.50
2023-02-26T18:23:13.875Z,-0.50
2023-02-26T18:25:41.628Z,-0.50
2023-02-26T18:28:17.468Z,-0.50
2023-02-26T18:30:45.082Z,-0.50
2023-02-26T18:33:12.713Z,-0.60
2023-02-26T18:35:45.809Z,-0.60
2023-02-26T18:38:18.450Z,-0.60
2023-02-26T18:40:46.429Z,-0.60
2023-02-26T18:43:13.798Z,-0.60
2023-02-26T18:45:42.002Z,-0.60
2023-02-26T18:48:11.842Z,-0.70
2023-02-26T18:50:38.783Z,-0.70
2023-02-26T18:53:05.930Z,-0.70
2023-02-26T18:55:32.902Z,-0.60
2023-02-26T18:57:59.702Z,-0.70
2023-02-26T19:00:28.537Z,-0.70
2023-02-26T19:02:55.964Z,-0.70
2023-02-26T19:05:24.729Z,-0.70
2023-02-26T19:07:52.161Z,-0.70
2023-02-26T19:10:19.785Z,-0.70
2023-02-26T19:12:47.114Z,-0.70
2023-02-26T19:15:14.394Z,-0.70
2023-02-26T19:17:51.679Z,-0.70
2023-02-26T19:20:19.052Z,-0.80
2023-02-26T19:22:46.560Z,-0.80
2023-02-26T19:25:13.516Z,-0.90
2023-02-26T19:27:40.580Z,-0.80
2023-02-26T19:30:09.642Z,-0.80
2023-02-26T19:32:36.477Z,-0.90
2023-02-26T19:35:03.403Z,-0.90
2023-02-26T19:37:30.168Z,-0.90
2023-02-26T19:39:56.911Z,-0.90
2023-02-26T19:42:28.555Z,-0.90
2023-02-26T19:44:55.342Z,-0.80
2023-02-26T19:47:22.198Z,-0.90
2023-02-26T19:49:49.038Z,-0.90
2023-02-26T19:52:15.791Z,-0.90
2023-02-26T19:54:46.577Z,-0.90
2023-02-26T19:57:19.546Z,-0.90
2023-02-26T19:59:47.389Z,-0.90
2023-02-26T20:02:14.983Z,-0.90
2023-02-26T20:04:41.730Z,-0.90
2023-02-26T20:07:08.571Z,-0.90
2023-02-26T20:09:38.568Z,-0.90
2023-02-26T20:12:08.845Z,-0.80
2023-02-26T20:14:36.993Z,-0.80
2023-02-26T20:17:04.005Z,-0.80
2023-02-26T20:19:30.821Z,-0.80
2023-02-26T20:21:57.747Z,-0.80
2023-02-26T20:24:24.685Z,-0.80
2023-02-26T20:26:51.499Z,-0.80
2023-02-26T20:29:18.653Z,-0.80
2023-02-26T20:31:49.542Z,-0.80
2023-02-26T20:34:19.266Z,-0.80
2023-02-26T20:36:48.232Z,-0.80
2023-02-26T20:39:15.267Z,-0.90
2023-02-26T20:41:42.116Z,-0.90
2023-02-26T20:44:09.060Z,-0.90
2023-02-26T20:46:38.778Z,-0.90
2023-02-26T20:49:11.377Z,-0.90
2023-02-26T20:51:42.513Z,-0.90
2023-02-26T20:54:12.870Z,-0.90
2023-02-26T20:56:39.628Z,-0.90
2023-02-26T20:59:07.762Z,-0.90
2023-02-26T21:01:35.725Z,-0.80
2023-02-26T21:04:08.378Z,-0.80
2023-02-26T21:06:35.628Z,-0.80
2023-02-26T21:09:04.336Z,-0.90
2023-02-26T21:11:36.941Z,-0.90
2023-02-26T21:14:05.131Z,-0.90
2023-02-26T21:16:32.526Z,-1.00
2023-02-26T21:19:03.702Z,-1.10
2023-02-26T21:21:31.298Z,-1.10
2023-02-26T21:23:58.196Z,-1.00
2023-02-26T21:26:27.224Z,-1.10
2023-02-26T21:28:54.244Z,-1.10
2023-02-26T21:31:22.085Z,-1.10
2023-02-26T21:33:49.177Z,-1.10
2023-02-26T21:36:16.233Z,-1.20
2023-02-26T21:38:49.398Z,-1.20
2023-02-26T21:41:16.179Z,-1.20
2023-02-26T21:43:43.632Z,-1.20
2023-02-26T21:46:10.552Z,-1.10
2023-02-26T21:48:37.470Z,-1.20
2023-02-26T21:51:04.574Z,-1.20
2023-02-26T21:53:31.388Z,-1.10
2023-02-26T21:55:58.410Z,-1.10
2023-02-26T21:58:25.662Z,-1.10
2023-02-26T22:00:53.813Z,-1.10
2023-02-26T22:03:20.554Z,-1.10
2023-02-26T22:05:51.315Z,-1.10
2023-02-26T22:08:18.772Z,-1.00
2023-02-26T22:10:48.641Z,-1.00
2023-02-26T22:13:15.708Z,-1.00
2023-02-26T22:15:42.925Z,-1.00
2023-02-26T22:18:09.800Z,-1.00
2023-02-26T22:20:36.659Z,-1.00
2023-02-26T22:23:04.574Z,-1.10
2023-02-26T22:25:31.830Z,-1.10
2023-02-26T22:27:58.763Z,-1.10
2023-02-26T22:30:25.768Z,-1.20
2023-02-26T22:32:52.553Z,-1.20
2023-02-26T22:35:19.424Z,-1.10
2023-02-26T22:37:46.285Z,-1.20
2023-02-26T22:40:13.829Z,-1.20
2023-02-26T22:42:41.786Z,-1.20
2023-02-26T22:45:12.069Z,-1.20
2023-02-26T22:47:39.103Z,-1.20
2023-02-26T22:50:06.221Z,-1.20
2023-02-26T22:52:33.048Z,-1.20
2023-02-26T22:55:00.148Z,-1.10
2023-02-26T22:57:27.107Z,-1.10
2023-02-26T22:59:53.896Z,-1.10
2023-02-26T23:02:20.594Z,-1.00
2023-02-26T23:04:47.534Z,-1.10
2023-02-26T23:07:14.295Z,-1.10
2023-02-26T23:09:41.344Z,-1.10
2023-02-26T23:12:08.988Z,-1.10
2023-02-26T23:14:36.299Z,-1.00
2023-02-26T23:17:03.222Z,-1.00
2023-02-26T23:19:29.962Z,-1.10
2023-02-26T23:21:56.678Z,-1.10
2023-02-26T23:24:23.499Z,-1.10
2023-02-26T23:26:50.576Z,-1.10
2023-02-26T23:29:17.316Z,-1.10
2023-02-26T23:31:44.197Z,-1.10
2023-02-26T23:34:14.023Z,-1.20
2023-02-26T23:36:40.833Z,-1.20
2023-02-26T23:39:08.715Z,-1.20
2023-02-26T23:41:35.863Z,-1.20
2023-02-26T23:44:02.606Z,-1.30
2023-02-26T23:46:29.500Z,-1.30
2023-02-26T23:48:57.479Z,-1.30
2023-02-26T23:51:25.317Z,-1.40
2023-02-26T23:53:52.263Z,-1.40
2023-02-26T23:56:19.030Z,-1.40
2023-02-26T23:58:45.902Z,-1.30
